createdAt,value
2022-08-23T00:03:26.231Z,5.60
2022-08-23T00:08:34.505Z,5.57
2022-08-23T00:13:47.914Z,4.90
2022-08-23T00:18:56.796Z,5.32
2022-08-23T00:24:08.799Z,5.55
2022-08-23T00:29:13.048Z,5.85
2022-08-23T00:34:18.618Z,5.93
2022-08-23T00:39:22.979Z,6.63
2022-08-23T00:44:48.071Z,5.90
2022-08-23T00:49:57.929Z,6.43
2022-08-23T00:55:05.946Z,6.50
2022-08-23T01:00:13.643Z,6.38
2022-08-23T01:05:27.291Z,6.50
2022-08-23T01:10:41.602Z,5.20
2022-08-23T01:15:52.508Z,6.35
2022-08-23T01:21:07.055Z,5.82
2022-08-23T01:26:21.988Z,5.68
2022-08-23T01:31:33.002Z,5.00
2022-08-23T01:36:37.450Z,5.53
2022-08-23T01:41:45.311Z,5.63
2022-08-23T01:46:53.152Z,5.13
2022-08-23T01:52:12.774Z,5.85
2022-08-23T01:57:19.659Z,5.93
2022-08-23T02:02:28.508Z,6.07
2022-08-23T02:07:37.968Z,5.68
2022-08-23T02:12:54.238Z,5.95
2022-08-23T02:18:03.384Z,6.55
2022-08-23T02:23:10.126Z,7.07
2022-08-23T02:28:17.309Z,7.75
2022-08-23T02:38:47.777Z,5.40
2022-08-23T02:43:59.270Z,7.47
2022-08-23T02:49:07.449Z,6.82
2022-08-23T02:54:14.768Z,6.47
2022-08-23T02:59:28.724Z,6.15
2022-08-23T03:04:38.972Z,5.70
2022-08-23T03:09:46.173Z,6.07
2022-08-23T03:15:06.109Z,7.40
2022-08-23T03:20:15.958Z,6.20
2022-08-23T03:25:24.457Z,6.18
2022-08-23T03:30:32.475Z,5.60
2022-08-23T03:35:40.907Z,6.30
2022-08-23T03:40:50.972Z,5.57
2022-08-23T03:46:05.458Z,5.30
2022-08-23T03:51:16.306Z,5.32
2022-08-23T03:56:29.615Z,6.10
2022-08-23T04:01:47.913Z,5.78
2022-08-23T04:06:59.416Z,5.60
2022-08-23T04:12:17.578Z,5.20
2022-08-23T04:17:27.314Z,5.47
2022-08-23T04:22:36.802Z,4.50
2022-08-23T04:27:50.182Z,5.03
2022-08-23T04:33:09.983Z,4.75
2022-08-23T04:38:24.247Z,5.65
2022-08-23T04:43:31.011Z,5.63
2022-08-23T04:48:36.547Z,6.00
2022-08-23T04:53:41.756Z,5.72
2022-08-23T04:58:45.219Z,5.43
2022-08-23T05:03:49.341Z,6.03
2022-08-23T05:08:52.035Z,5.60
2022-08-23T05:13:54.822Z,5.38
2022-08-23T05:19:03.627Z,5.25
2022-08-23T05:24:13.841Z,5.70
2022-08-23T05:29:16.809Z,5.80
2022-08-23T05:34:22.647Z,5.97
2022-08-23T05:39:36.052Z,5.75
2022-08-23T05:44:39.899Z,5.95
2022-08-23T05:49:44.468Z,5.80
2022-08-23T05:54:47.178Z,5.97
2022-08-23T05:59:50.009Z,5.90
2022-08-23T06:04:57.270Z,6.50
2022-08-23T06:10:00.363Z,6.25
2022-08-23T06:15:03.692Z,7.00
2022-08-23T06:20:09.234Z,6.90
2022-08-23T06:25:12.042Z,7.10
2022-08-23T06:30:15.149Z,7.05
2022-08-23T06:35:38.066Z,6.72
2022-08-23T06:40:42.376Z,7.95
2022-08-23T06:45:53.812Z,7.55
2022-08-23T06:50:59.136Z,8.23
2022-08-23T06:56:01.801Z,7.65
2022-08-23T07:01:28.892Z,8.05
2022-08-23T07:06:37.972Z,7.60
2022-08-23T07:11:41.165Z,7.97
2022-08-23T07:16:46.088Z,7.70
2022-08-23T07:21:51.176Z,6.97
2022-08-23T07:26:54.759Z,7.50
2022-08-23T07:31:58.210Z,7.93
2022-08-23T07:37:02.499Z,7.70
2022-08-23T07:42:23.846Z,7.85
2022-08-23T07:47:28.696Z,7.68
2022-08-23T07:52:32.755Z,8.27
2022-08-23T07:57:35.508Z,9.32
2022-08-23T08:02:38.286Z,9.02
2022-08-23T08:07:42.724Z,8.75
2022-08-23T08:12:45.482Z,8.90
2022-08-23T08:17:48.749Z,8.90
2022-08-23T08:22:58.732Z,8.20
2022-08-23T08:28:03.282Z,8.63
2022-08-23T08:33:06.105Z,8.90
2022-08-23T08:38:10.128Z,9.25
2022-08-23T08:43:31.113Z,10.75
2022-08-23T08:48:40.204Z,10.48
2022-08-23T08:53:49.543Z,10.57
2022-08-23T08:58:54.291Z,10.27
2022-08-23T09:03:58.431Z,11.23
2022-08-23T09:09:22.117Z,11.55
2022-08-23T09:14:45.817Z,11.77
2022-08-23T09:19:51.764Z,11.13
2022-08-23T09:24:58.071Z,10.45
2022-08-23T09:30:03.071Z,8.60
2022-08-23T09:35:17.203Z,9.70
2022-08-23T09:40:27.121Z,8.55
2022-08-23T09:45:35.448Z,8.98
2022-08-23T09:50:43.633Z,7.90
2022-08-23T09:55:56.461Z,8.40
2022-08-23T10:01:13.636Z,7.93
2022-08-23T10:06:31.748Z,8.93
2022-08-23T10:11:40.692Z,9.05
2022-08-23T10:16:56.099Z,8.43
2022-08-23T10:22:04.831Z,9.40
2022-08-23T10:27:40.503Z,8.80
2022-08-23T10:32:54.218Z,8.07
2022-08-23T10:38:12.902Z,7.45
2022-08-23T10:43:25.964Z,7.43
2022-08-23T10:48:35.405Z,6.30
2022-08-23T10:53:46.737Z,6.32
2022-08-23T10:58:54.938Z,5.60
2022-08-23T11:04:03.813Z,5.38
2022-08-23T11:09:11.801Z,5.60
2022-08-23T11:14:28.743Z,5.25
2022-08-23T11:19:48.673Z,5.43
2022-08-23T11:24:58.669Z,4.38
2022-08-23T11:30:35.179Z,4.88
2022-08-23T11:35:44.298Z,4.82
2022-08-23T11:40:59.794Z,4.78
2022-08-23T11:46:26.631Z,4.78
2022-08-23T11:51:38.311Z,6.00
2022-08-23T11:56:56.187Z,5.85
2022-08-23T12:01:59.345Z,7.07
2022-08-23T12:07:07.817Z,5.53
2022-08-23T12:12:26.290Z,19.13
2022-08-23T12:18:06.620Z,8.45
2022-08-23T12:23:20.056Z,5.85
2022-08-23T12:28:39.355Z,4.88
2022-08-23T12:33:50.951Z,4.65
2022-08-23T12:39:01.701Z,5.47
2022-08-23T12:44:07.801Z,7.30
2022-08-23T12:49:13.455Z,5.90
2022-08-23T12:54:23.144Z,7.28
2022-08-23T12:59:35.493Z,5.10
2022-08-23T13:04:41.293Z,5.45
2022-08-23T13:09:53.515Z,4.63
2022-08-23T13:15:01.434Z,4.90
2022-08-23T13:20:23.409Z,4.72
2022-08-23T13:25:32.173Z,4.70
2022-08-23T13:30:37.397Z,4.40
2022-08-23T13:35:43.267Z,4.88
2022-08-23T13:40:58.536Z,3.83
2022-08-23T13:46:11.143Z,3.88
2022-08-23T13:51:30.528Z,4.43
2022-08-23T13:56:37.984Z,5.03
2022-08-23T14:01:40.734Z,4.07
2022-08-23T14:06:43.463Z,5.40
2022-08-23T14:11:58.448Z,5.18
2022-08-23T14:17:02.938Z,5.15
2022-08-23T14:22:06.412Z,4.30
2022-08-23T14:27:12.133Z,4.40
2022-08-23T14:32:14.986Z,4.13
2022-08-23T14:42:42.415Z,3.45
2022-08-23T14:47:48.291Z,3.55
2022-08-23T14:53:09.825Z,4.82
2022-08-23T14:58:14.737Z,3.72
2022-08-23T15:03:24.413Z,3.90
2022-08-23T15:08:29.708Z,3.40
2022-08-23T15:13:38.524Z,3.55
2022-08-23T15:18:59.861Z,3.65
2022-08-23T15:24:03.181Z,3.72
2022-08-23T15:29:13.960Z,3.83
2022-08-23T15:34:24.848Z,3.78
2022-08-23T15:39:27.727Z,3.30
2022-08-23T15:44:35.350Z,3.88
2022-08-23T15:49:38.462Z,4.18
2022-08-23T15:54:41.704Z,4.13
2022-08-23T15:59:46.131Z,3.88
2022-08-23T16:04:49.404Z,4.15
2022-08-23T16:09:52.495Z,3.70
2022-08-23T16:14:56.640Z,3.65
2022-08-23T16:19:59.348Z,3.78
2022-08-23T16:25:02.176Z,4.05
2022-08-23T16:30:08.186Z,3.50
2022-08-23T16:35:15.716Z,2.80
2022-08-23T16:40:19.052Z,3.50
2022-08-23T16:45:25.214Z,3.35
2022-08-23T16:50:32.788Z,3.50
2022-08-23T16:55:36.868Z,4.03
2022-08-23T17:00:41.337Z,4.53
2022-08-23T17:05:51.322Z,3.80
2022-08-23T17:11:09.298Z,4.28
2022-08-23T17:16:24.608Z,3.80
2022-08-23T17:21:29.299Z,4.15
2022-08-23T17:26:33.279Z,4.25
2022-08-23T17:31:55.533Z,4.30
2022-08-23T17:37:04.531Z,4.00
2022-08-23T17:42:17.312Z,4.10
2022-08-23T17:47:42.565Z,4.15
2022-08-23T17:59:40.322Z,4.38
2022-08-23T18:04:45.142Z,4.25
2022-08-23T18:09:48.954Z,4.03
2022-08-23T18:15:04.617Z,4.78
2022-08-23T18:20:13.104Z,7.22
2022-08-23T18:25:17.121Z,8.02
2022-08-23T18:30:56.253Z,8.02
2022-08-23T18:35:59.902Z,8.43
2022-08-23T18:41:02.687Z,8.55
2022-08-23T18:46:07.536Z,9.07
2022-08-23T18:51:16.288Z,9.18
2022-08-23T18:56:20.629Z,8.68
2022-08-23T19:01:27.128Z,8.13
2022-08-23T19:06:30.338Z,6.15
2022-08-23T19:11:33.411Z,6.53
2022-08-23T19:16:37.889Z,6.65
2022-08-23T19:21:40.612Z,6.30
2022-08-23T19:26:47.334Z,5.60
2022-08-23T19:31:51.706Z,6.70
2022-08-23T19:37:00.686Z,6.63
2022-08-23T19:42:09.681Z,5.75
2022-08-23T19:47:19.863Z,6.32
2022-08-23T19:52:26.479Z,6.22
2022-08-23T19:57:29.431Z,6.72
2022-08-23T20:02:33.510Z,8.27
2022-08-23T20:07:37.739Z,7.25
2022-08-23T20:12:41.727Z,7.90
2022-08-23T20:17:46.137Z,7.60
2022-08-23T20:23:08.874Z,7.70
2022-08-23T20:28:14.831Z,6.57
2022-08-23T20:33:18.960Z,7.80
2022-08-23T20:38:28.322Z,6.75
2022-08-23T20:43:39.046Z,6.50
2022-08-23T20:48:43.879Z,8.13
2022-08-23T20:53:47.192Z,7.05
2022-08-23T20:58:51.188Z,8.63
2022-08-23T21:03:55.227Z,8.30
2022-08-23T21:09:00.281Z,7.15
2022-08-23T21:14:02.961Z,7.78
2022-08-23T21:19:08.430Z,10.05
2022-08-23T21:24:13.794Z,11.10
2022-08-23T21:29:16.801Z,7.20
2022-08-23T21:34:21.581Z,7.15
2022-08-23T21:39:25.000Z,7.35
2022-08-23T21:44:27.893Z,7.05
2022-08-23T21:49:33.081Z,7.07
2022-08-23T21:54:38.231Z,7.68
2022-08-23T21:59:43.043Z,6.97
2022-08-23T22:04:47.270Z,7.20
2022-08-23T22:09:51.386Z,7.35
2022-08-23T22:14:54.187Z,8.05
2022-08-23T22:19:58.669Z,7.38
2022-08-23T22:25:02.272Z,6.78
2022-08-23T22:30:06.274Z,9.27
2022-08-23T22:35:12.439Z,8.70
2022-08-23T22:40:15.235Z,8.43
2022-08-23T22:45:19.087Z,6.95
2022-08-23T22:50:23.088Z,7.53
2022-08-23T22:55:26.043Z,7.00
2022-08-23T23:00:28.876Z,7.35
2022-08-23T23:05:35.454Z,7.60
2022-08-23T23:10:38.224Z,7.57
2022-08-23T23:15:41.539Z,7.80
2022-08-23T23:20:45.880Z,7.35
2022-08-23T23:25:50.000Z,7.22
2022-08-23T23:30:55.163Z,7.07
2022-08-23T23:36:00.083Z,7.22
2022-08-23T23:41:05.736Z,7.90
2022-08-23T23:46:10.775Z,7.80
2022-08-23T23:51:18.659Z,8.48
2022-08-23T23:56:23.779Z,7.45
